sensor_id;sensor_type;location;lat;lon;timestamp;P1;durP1;ratioP1;P2;durP2;ratioP2
61391;SDS011;47261;52.892;5.738;2024-01-06T00:00:29;18.58;;;8.23;;
61391;SDS011;47261;52.892;5.738;2024-01-06T00:02:55;22.53;;;8.10;;
61391;SDS011;47261;52.892;5.738;2024-01-06T00:05:20;26.00;;;10.95;;
61391;SDS011;47261;52.892;5.738;2024-01-06T00:07:46;24.53;;;10.00;;
61391;SDS011;47261;52.892;5.738;2024-01-06T00:10:12;27.30;;;11.32;;
61391;SDS011;47261;52.892;5.738;2024-01-06T00:12:37;25.63;;;12.48;;
61391;SDS011;47261;52.892;5.738;2024-01-06T00:15:03;26.80;;;11.47;;
61391;SDS011;47261;52.892;5.738;2024-01-06T00:17:31;23.30;;;10.18;;
61391;SDS011;47261;52.892;5.738;2024-01-06T00:19:57;21.65;;;9.60;;
61391;SDS011;47261;52.892;5.738;2024-01-06T00:22:25;19.10;;;8.30;;
61391;SDS011;47261;52.892;5.738;2024-01-06T00:24:51;24.47;;;11.07;;
61391;SDS011;47261;52.892;5.738;2024-01-06T00:27:17;26.63;;;12.98;;
61391;SDS011;47261;52.892;5.738;2024-01-06T00:29:42;24.85;;;10.07;;
61391;SDS011;47261;52.892;5.738;2024-01-06T00:32:08;24.55;;;10.65;;
61391;SDS011;47261;52.892;5.738;2024-01-06T00:34:34;24.40;;;11.33;;
61391;SDS011;47261;52.892;5.738;2024-01-06T00:36:59;21.63;;;9.27;;
61391;SDS011;47261;52.892;5.738;2024-01-06T00:39:25;22.27;;;10.47;;
61391;SDS011;47261;52.892;5.738;2024-01-06T00:41:50;17.07;;;6.73;;
61391;SDS011;47261;52.892;5.738;2024-01-06T00:44:16;15.25;;;6.45;;
61391;SDS011;47261;52.892;5.738;2024-01-06T00:46:41;21.27;;;9.77;;
61391;SDS011;47261;52.892;5.738;2024-01-06T00:49:07;14.05;;;5.50;;
61391;SDS011;47261;52.892;5.738;2024-01-06T00:51:33;16.23;;;7.45;;
61391;SDS011;47261;52.892;5.738;2024-01-06T00:53:58;19.13;;;9.07;;
61391;SDS011;47261;52.892;5.738;2024-01-06T00:56:24;22.05;;;8.77;;
61391;SDS011;47261;52.892;5.738;2024-01-06T00:58:49;20.50;;;10.03;;
61391;SDS011;47261;52.892;5.738;2024-01-06T01:01:15;17.45;;;8.20;;
61391;SDS011;47261;52.892;5.738;2024-01-06T01:03:41;21.33;;;8.65;;
61391;SDS011;47261;52.892;5.738;2024-01-06T01:06:06;20.37;;;7.30;;
61391;SDS011;47261;52.892;5.738;2024-01-06T01:08:33;10.90;;;5.07;;
61391;SDS011;47261;52.892;5.738;2024-01-06T01:10:58;19.77;;;8.37;;
61391;SDS011;47261;52.892;5.738;2024-01-06T01:13:24;12.32;;;5.45;;
61391;SDS011;47261;52.892;5.738;2024-01-06T01:15:50;15.90;;;6.15;;
61391;SDS011;47261;52.892;5.738;2024-01-06T01:18:16;10.83;;;5.13;;
61391;SDS011;47261;52.892;5.738;2024-01-06T01:20:41;11.37;;;5.27;;
61391;SDS011;47261;52.892;5.738;2024-01-06T01:23:07;17.42;;;5.85;;
61391;SDS011;47261;52.892;5.738;2024-01-06T01:25:33;12.27;;;5.30;;
61391;SDS011;47261;52.892;5.738;2024-01-06T01:27:59;16.50;;;5.83;;
61391;SDS011;47261;52.892;5.738;2024-01-06T01:30:24;10.37;;;3.80;;
61391;SDS011;47261;52.892;5.738;2024-01-06T01:32:50;9.30;;;4.78;;
61391;SDS011;47261;52.892;5.738;2024-01-06T01:35:16;8.47;;;4.20;;
61391;SDS011;47261;52.892;5.738;2024-01-06T01:37:41;11.68;;;4.22;;
61391;SDS011;47261;52.892;5.738;2024-01-06T01:40:07;12.00;;;5.70;;
61391;SDS011;47261;52.892;5.738;2024-01-06T01:42:33;11.80;;;5.18;;
61391;SDS011;47261;52.892;5.738;2024-01-06T01:44:59;13.98;;;6.35;;
61391;SDS011;47261;52.892;5.738;2024-01-06T01:47:24;10.60;;;4.55;;
61391;SDS011;47261;52.892;5.738;2024-01-06T01:49:51;15.18;;;7.32;;
61391;SDS011;47261;52.892;5.738;2024-01-06T01:52:19;12.88;;;4.90;;
61391;SDS011;47261;52.892;5.738;2024-01-06T01:54:45;9.77;;;4.37;;
61391;SDS011;47261;52.892;5.738;2024-01-06T01:57:11;15.88;;;5.68;;
61391;SDS011;47261;52.892;5.738;2024-01-06T01:59:38;12.27;;;5.43;;
61391;SDS011;47261;52.892;5.738;2024-01-06T02:02:05;14.98;;;4.97;;
61391;SDS011;47261;52.892;5.738;2024-01-06T02:04:31;13.23;;;5.47;;
61391;SDS011;47261;52.892;5.738;2024-01-06T02:06:57;16.42;;;7.43;;
61391;SDS011;47261;52.892;5.738;2024-01-06T02:09:23;11.40;;;5.53;;
61391;SDS011;47261;52.892;5.738;2024-01-06T02:11:52;11.85;;;4.53;;
61391;SDS011;47261;52.892;5.738;2024-01-06T02:14:18;11.55;;;4.63;;
61391;SDS011;47261;52.892;5.738;2024-01-06T02:16:43;11.30;;;4.00;;
61391;SDS011;47261;52.892;5.738;2024-01-06T02:19:09;9.68;;;4.47;;
61391;SDS011;47261;52.892;5.738;2024-01-06T02:21:41;15.18;;;4.25;;
61391;SDS011;47261;52.892;5.738;2024-01-06T02:24:08;9.10;;;4.22;;
61391;SDS011;47261;52.892;5.738;2024-01-06T02:26:34;8.95;;;3.97;;
61391;SDS011;47261;52.892;5.738;2024-01-06T02:29:00;8.20;;;3.95;;
61391;SDS011;47261;52.892;5.738;2024-01-06T02:31:26;8.68;;;4.00;;
61391;SDS011;47261;52.892;5.738;2024-01-06T02:33:52;11.25;;;4.68;;
61391;SDS011;47261;52.892;5.738;2024-01-06T02:36:18;11.90;;;5.32;;
61391;SDS011;47261;52.892;5.738;2024-01-06T02:38:44;8.57;;;3.73;;
61391;SDS011;47261;52.892;5.738;2024-01-06T02:41:09;8.90;;;4.43;;
61391;SDS011;47261;52.892;5.738;2024-01-06T02:43:35;14.73;;;6.27;;
61391;SDS011;47261;52.892;5.738;2024-01-06T02:46:01;13.97;;;5.07;;
61391;SDS011;47261;52.892;5.738;2024-01-06T02:48:26;11.45;;;4.38;;
61391;SDS011;47261;52.892;5.738;2024-01-06T02:50:54;10.55;;;5.00;;
61391;SDS011;47261;52.892;5.738;2024-01-06T02:53:20;11.87;;;5.17;;
61391;SDS011;47261;52.892;5.738;2024-01-06T02:55:46;9.50;;;4.07;;
61391;SDS011;47261;52.892;5.738;2024-01-06T02:58:11;13.63;;;5.47;;
61391;SDS011;47261;52.892;5.738;2024-01-06T03:00:37;8.97;;;3.70;;
61391;SDS011;47261;52.892;5.738;2024-01-06T03:03:03;8.18;;;3.97;;
61391;SDS011;47261;52.892;5.738;2024-01-06T03:05:28;9.27;;;3.73;;
61391;SDS011;47261;52.892;5.738;2024-01-06T03:07:54;9.23;;;3.53;;
61391;SDS011;47261;52.892;5.738;2024-01-06T03:10:19;8.25;;;2.95;;
61391;SDS011;47261;52.892;5.738;2024-01-06T03:12:45;10.23;;;4.50;;
61391;SDS011;47261;52.892;5.738;2024-01-06T03:15:11;13.55;;;5.22;;
61391;SDS011;47261;52.892;5.738;2024-01-06T03:17:36;9.57;;;4.27;;
61391;SDS011;47261;52.892;5.738;2024-01-06T03:20:02;10.05;;;3.47;;
61391;SDS011;47261;52.892;5.738;2024-01-06T03:22:29;10.67;;;3.77;;
61391;SDS011;47261;52.892;5.738;2024-01-06T03:24:55;7.60;;;2.97;;
61391;SDS011;47261;52.892;5.738;2024-01-06T03:27:20;8.27;;;2.97;;
61391;SDS011;47261;52.892;5.738;2024-01-06T03:29:46;9.35;;;3.33;;
61391;SDS011;47261;52.892;5.738;2024-01-06T03:32:11;9.47;;;4.33;;
61391;SDS011;47261;52.892;5.738;2024-01-06T03:34:37;5.38;;;1.65;;
61391;SDS011;47261;52.892;5.738;2024-01-06T03:37:03;12.30;;;3.83;;
61391;SDS011;47261;52.892;5.738;2024-01-06T03:39:28;11.52;;;5.15;;
61391;SDS011;47261;52.892;5.738;2024-01-06T03:41:54;9.83;;;3.03;;
61391;SDS011;47261;52.892;5.738;2024-01-06T03:44:19;13.93;;;5.60;;
61391;SDS011;47261;52.892;5.738;2024-01-06T03:46:45;14.13;;;5.75;;
61391;SDS011;47261;52.892;5.738;2024-01-06T03:49:11;10.73;;;4.23;;
61391;SDS011;47261;52.892;5.738;2024-01-06T03:51:36;8.23;;;3.37;;
61391;SDS011;47261;52.892;5.738;2024-01-06T03:54:02;13.02;;;4.75;;
61391;SDS011;47261;52.892;5.738;2024-01-06T03:56:27;9.77;;;3.97;;
61391;SDS011;47261;52.892;5.738;2024-01-06T03:58:53;12.77;;;3.20;;
61391;SDS011;47261;52.892;5.738;2024-01-06T04:01:19;12.30;;;5.53;;
61391;SDS011;47261;52.892;5.738;2024-01-06T04:03:46;14.80;;;5.28;;
61391;SDS011;47261;52.892;5.738;2024-01-06T04:06:11;11.17;;;5.33;;
61391;SDS011;47261;52.892;5.738;2024-01-06T04:08:38;10.27;;;4.32;;
61391;SDS011;47261;52.892;5.738;2024-01-06T04:11:05;12.52;;;4.80;;
61391;SDS011;47261;52.892;5.738;2024-01-06T04:13:31;11.05;;;3.70;;
61391;SDS011;47261;52.892;5.738;2024-01-06T04:15:57;12.53;;;4.47;;
61391;SDS011;47261;52.892;5.738;2024-01-06T04:18:22;12.63;;;5.25;;
61391;SDS011;47261;52.892;5.738;2024-01-06T04:20:48;8.80;;;3.93;;
61391;SDS011;47261;52.892;5.738;2024-01-06T04:23:13;7.97;;;2.97;;
61391;SDS011;47261;52.892;5.738;2024-01-06T04:25:39;8.23;;;4.10;;
61391;SDS011;47261;52.892;5.738;2024-01-06T04:28:04;12.27;;;4.27;;
61391;SDS011;47261;52.892;5.738;2024-01-06T04:30:30;11.82;;;4.53;;
61391;SDS011;47261;52.892;5.738;2024-01-06T04:32:56;10.27;;;3.97;;
61391;SDS011;47261;52.892;5.738;2024-01-06T04:35:22;7.90;;;4.22;;
61391;SDS011;47261;52.892;5.738;2024-01-06T04:37:48;10.45;;;4.07;;
61391;SDS011;47261;52.892;5.738;2024-01-06T04:40:14;9.30;;;4.18;;
61391;SDS011;47261;52.892;5.738;2024-01-06T04:42:40;9.05;;;3.92;;
61391;SDS011;47261;52.892;5.738;2024-01-06T04:45:05;9.27;;;4.57;;
61391;SDS011;47261;52.892;5.738;2024-01-06T04:47:31;10.77;;;3.75;;
61391;SDS011;47261;52.892;5.738;2024-01-06T04:49:57;11.50;;;4.00;;
61391;SDS011;47261;52.892;5.738;2024-01-06T04:52:23;8.43;;;3.75;;
61391;SDS011;47261;52.892;5.738;2024-01-06T04:54:48;10.38;;;3.50;;
61391;SDS011;47261;52.892;5.738;2024-01-06T04:57:14;10.57;;;3.53;;
61391;SDS011;47261;52.892;5.738;2024-01-06T04:59:40;9.07;;;3.58;;
61391;SDS011;47261;52.892;5.738;2024-01-06T05:02:06;6.93;;;3.60;;
61391;SDS011;47261;52.892;5.738;2024-01-06T05:04:32;9.50;;;3.63;;
61391;SDS011;47261;52.892;5.738;2024-01-06T05:06:58;12.25;;;4.43;;
61391;SDS011;47261;52.892;5.738;2024-01-06T05:09:24;8.17;;;3.00;;
61391;SDS011;47261;52.892;5.738;2024-01-06T05:11:50;7.72;;;2.95;;
61391;SDS011;47261;52.892;5.738;2024-01-06T05:14:16;8.93;;;3.20;;
61391;SDS011;47261;52.892;5.738;2024-01-06T05:16:41;9.85;;;3.80;;
61391;SDS011;47261;52.892;5.738;2024-01-06T05:19:07;11.95;;;4.88;;
61391;SDS011;47261;52.892;5.738;2024-01-06T05:21:34;8.67;;;3.20;;
61391;SDS011;47261;52.892;5.738;2024-01-06T05:24:00;10.15;;;3.22;;
61391;SDS011;47261;52.892;5.738;2024-01-06T05:26:25;8.85;;;3.85;;
61391;SDS011;47261;52.892;5.738;2024-01-06T05:28:51;8.03;;;3.43;;
61391;SDS011;47261;52.892;5.738;2024-01-06T05:31:17;13.15;;;4.47;;
61391;SDS011;47261;52.892;5.738;2024-01-06T05:33:43;12.30;;;4.10;;
61391;SDS011;47261;52.892;5.738;2024-01-06T05:36:09;12.53;;;3.97;;
61391;SDS011;47261;52.892;5.738;2024-01-06T05:38:35;12.00;;;4.13;;
61391;SDS011;47261;52.892;5.738;2024-01-06T05:41:01;9.48;;;3.75;;
61391;SDS011;47261;52.892;5.738;2024-01-06T05:43:27;11.13;;;4.18;;
61391;SDS011;47261;52.892;5.738;2024-01-06T05:45:52;7.40;;;3.20;;
61391;SDS011;47261;52.892;5.738;2024-01-06T05:48:18;8.63;;;3.93;;
61391;SDS011;47261;52.892;5.738;2024-01-06T05:50:44;8.90;;;3.13;;
61391;SDS011;47261;52.892;5.738;2024-01-06T05:53:09;8.27;;;3.67;;
61391;SDS011;47261;52.892;5.738;2024-01-06T05:55:35;8.63;;;3.15;;
61391;SDS011;47261;52.892;5.738;2024-01-06T05:58:01;12.45;;;3.42;;
61391;SDS011;47261;52.892;5.738;2024-01-06T06:00:27;7.07;;;2.90;;
61391;SDS011;47261;52.892;5.738;2024-01-06T06:02:52;9.32;;;2.95;;
61391;SDS011;47261;52.892;5.738;2024-01-06T06:05:18;13.17;;;5.33;;
61391;SDS011;47261;52.892;5.738;2024-01-06T06:07:45;10.10;;;4.18;;
61391;SDS011;47261;52.892;5.738;2024-01-06T06:10:11;11.47;;;4.47;;
61391;SDS011;47261;52.892;5.738;2024-01-06T06:12:37;7.80;;;3.63;;
61391;SDS011;47261;52.892;5.738;2024-01-06T06:15:04;12.00;;;4.55;;
61391;SDS011;47261;52.892;5.738;2024-01-06T06:17:31;12.27;;;4.05;;
61391;SDS011;47261;52.892;5.738;2024-01-06T06:19:57;9.95;;;4.38;;
61391;SDS011;47261;52.892;5.738;2024-01-06T06:22:24;14.37;;;5.03;;
61391;SDS011;47261;52.892;5.738;2024-01-06T06:24:54;9.27;;;3.45;;
61391;SDS011;47261;52.892;5.738;2024-01-06T06:27:24;4.90;;;2.53;;
61391;SDS011;47261;52.892;5.738;2024-01-06T06:29:50;9.85;;;4.03;;
61391;SDS011;47261;52.892;5.738;2024-01-06T06:32:16;9.43;;;3.63;;
61391;SDS011;47261;52.892;5.738;2024-01-06T06:34:42;18.52;;;5.70;;
61391;SDS011;47261;52.892;5.738;2024-01-06T06:37:08;8.15;;;2.42;;
61391;SDS011;47261;52.892;5.738;2024-01-06T06:39:33;13.05;;;4.95;;
61391;SDS011;47261;52.892;5.738;2024-01-06T06:42:00;15.32;;;5.35;;
61391;SDS011;47261;52.892;5.738;2024-01-06T06:44:26;13.10;;;3.63;;
61391;SDS011;47261;52.892;5.738;2024-01-06T06:46:52;14.93;;;5.57;;
61391;SDS011;47261;52.892;5.738;2024-01-06T06:49:18;7.72;;;3.60;;
61391;SDS011;47261;52.892;5.738;2024-01-06T06:51:43;15.63;;;5.17;;
61391;SDS011;47261;52.892;5.738;2024-01-06T06:54:13;11.55;;;4.50;;
61391;SDS011;47261;52.892;5.738;2024-01-06T06:56:40;10.57;;;4.18;;
61391;SDS011;47261;52.892;5.738;2024-01-06T06:59:09;8.15;;;2.65;;
61391;SDS011;47261;52.892;5.738;2024-01-06T07:01:35;10.37;;;3.40;;
61391;SDS011;47261;52.892;5.738;2024-01-06T07:04:02;7.22;;;3.30;;
61391;SDS011;47261;52.892;5.738;2024-01-06T07:06:27;13.45;;;3.85;;
61391;SDS011;47261;52.892;5.738;2024-01-06T07:08:54;8.90;;;3.20;;
61391;SDS011;47261;52.892;5.738;2024-01-06T07:11:20;8.80;;;3.67;;
61391;SDS011;47261;52.892;5.738;2024-01-06T07:13:46;12.65;;;3.72;;
61391;SDS011;47261;52.892;5.738;2024-01-06T07:16:12;10.27;;;4.72;;
61391;SDS011;47261;52.892;5.738;2024-01-06T07:18:37;6.90;;;2.90;;
61391;SDS011;47261;52.892;5.738;2024-01-06T07:21:06;10.63;;;3.97;;
61391;SDS011;47261;52.892;5.738;2024-01-06T07:23:32;8.83;;;2.57;;
61391;SDS011;47261;52.892;5.738;2024-01-06T07:25:58;11.90;;;3.47;;
61391;SDS011;47261;52.892;5.738;2024-01-06T07:28:24;13.10;;;4.00;;
61391;SDS011;47261;52.892;5.738;2024-01-06T07:30:50;12.97;;;4.17;;
61391;SDS011;47261;52.892;5.738;2024-01-06T07:33:15;13.20;;;5.50;;
61391;SDS011;47261;52.892;5.738;2024-01-06T07:35:41;10.73;;;3.87;;
61391;SDS011;47261;52.892;5.738;2024-01-06T07:38:11;16.17;;;4.10;;
61391;SDS011;47261;52.892;5.738;2024-01-06T07:40:37;10.07;;;3.78;;
61391;SDS011;47261;52.892;5.738;2024-01-06T07:43:03;8.80;;;3.33;;
61391;SDS011;47261;52.892;5.738;2024-01-06T07:45:29;11.05;;;4.22;;
61391;SDS011;47261;52.892;5.738;2024-01-06T07:47:56;8.68;;;3.20;;
61391;SDS011;47261;52.892;5.738;2024-01-06T07:50:25;9.90;;;4.05;;
61391;SDS011;47261;52.892;5.738;2024-01-06T07:52:51;11.37;;;4.90;;
61391;SDS011;47261;52.892;5.738;2024-01-06T07:55:17;16.52;;;5.90;;
61391;SDS011;47261;52.892;5.738;2024-01-06T07:57:43;9.10;;;3.03;;
61391;SDS011;47261;52.892;5.738;2024-01-06T08:00:09;6.03;;;2.20;;
61391;SDS011;47261;52.892;5.738;2024-01-06T08:02:35;14.85;;;4.57;;
61391;SDS011;47261;52.892;5.738;2024-01-06T08:05:01;14.80;;;5.30;;
61391;SDS011;47261;52.892;5.738;2024-01-06T08:07:27;11.00;;;4.15;;
61391;SDS011;47261;52.892;5.738;2024-01-06T08:09:53;11.40;;;4.13;;
61391;SDS011;47261;52.892;5.738;2024-01-06T08:12:18;14.75;;;4.78;;
61391;SDS011;47261;52.892;5.738;2024-01-06T08:14:44;14.00;;;4.33;;
61391;SDS011;47261;52.892;5.738;2024-01-06T08:17:10;14.10;;;5.53;;
61391;SDS011;47261;52.892;5.738;2024-01-06T08:19:35;12.20;;;4.70;;
61391;SDS011;47261;52.892;5.738;2024-01-06T08:22:01;13.70;;;4.87;;
61391;SDS011;47261;52.892;5.738;2024-01-06T08:24:27;13.90;;;3.78;;
61391;SDS011;47261;52.892;5.738;2024-01-06T08:26:52;7.70;;;3.10;;
61391;SDS011;47261;52.892;5.738;2024-01-06T08:29:18;11.73;;;3.90;;
61391;SDS011;47261;52.892;5.738;2024-01-06T08:31:45;13.17;;;5.20;;
61391;SDS011;47261;52.892;5.738;2024-01-06T08:34:10;13.02;;;5.38;;
61391;SDS011;47261;52.892;5.738;2024-01-06T08:36:36;13.00;;;5.30;;
61391;SDS011;47261;52.892;5.738;2024-01-06T08:39:02;11.57;;;5.07;;
61391;SDS011;47261;52.892;5.738;2024-01-06T08:41:28;10.85;;;3.58;;
61391;SDS011;47261;52.892;5.738;2024-01-06T08:43:53;14.97;;;4.87;;
61391;SDS011;47261;52.892;5.738;2024-01-06T08:46:19;9.57;;;3.57;;
61391;SDS011;47261;52.892;5.738;2024-01-06T08:48:44;11.98;;;5.13;;
61391;SDS011;47261;52.892;5.738;2024-01-06T08:51:10;9.43;;;4.40;;
61391;SDS011;47261;52.892;5.738;2024-01-06T08:53:36;13.80;;;5.40;;
61391;SDS011;47261;52.892;5.738;2024-01-06T08:56:01;15.27;;;5.57;;
61391;SDS011;47261;52.892;5.738;2024-01-06T08:58:28;13.50;;;3.72;;
61391;SDS011;47261;52.892;5.738;2024-01-06T09:00:54;9.03;;;4.13;;
61391;SDS011;47261;52.892;5.738;2024-01-06T09:03:19;14.18;;;6.28;;
61391;SDS011;47261;52.892;5.738;2024-01-06T09:05:55;12.60;;;3.92;;
61391;SDS011;47261;52.892;5.738;2024-01-06T09:08:21;12.80;;;4.78;;
61391;SDS011;47261;52.892;5.738;2024-01-06T09:10:48;8.35;;;3.45;;
61391;SDS011;47261;52.892;5.738;2024-01-06T09:13:16;12.00;;;5.57;;
61391;SDS011;47261;52.892;5.738;2024-01-06T09:15:42;13.10;;;3.75;;
61391;SDS011;47261;52.892;5.738;2024-01-06T09:18:08;12.97;;;5.00;;
61391;SDS011;47261;52.892;5.738;2024-01-06T09:20:34;11.18;;;4.20;;
61391;SDS011;47261;52.892;5.738;2024-01-06T09:23:00;15.02;;;5.32;;
61391;SDS011;47261;52.892;5.738;2024-01-06T09:25:26;7.27;;;3.17;;
61391;SDS011;47261;52.892;5.738;2024-01-06T09:27:52;11.35;;;4.70;;
61391;SDS011;47261;52.892;5.738;2024-01-06T09:30:18;9.88;;;4.63;;
61391;SDS011;47261;52.892;5.738;2024-01-06T09:32:44;12.02;;;4.13;;
61391;SDS011;47261;52.892;5.738;2024-01-06T09:35:09;10.13;;;3.72;;
61391;SDS011;47261;52.892;5.738;2024-01-06T09:37:35;15.90;;;6.17;;
61391;SDS011;47261;52.892;5.738;2024-01-06T09:40:00;14.30;;;5.60;;
61391;SDS011;47261;52.892;5.738;2024-01-06T09:42:26;10.18;;;4.93;;
61391;SDS011;47261;52.892;5.738;2024-01-06T09:44:52;7.80;;;3.83;;
61391;SDS011;47261;52.892;5.738;2024-01-06T09:47:17;16.77;;;6.60;;
61391;SDS011;47261;52.892;5.738;2024-01-06T09:49:46;13.98;;;5.68;;
61391;SDS011;47261;52.892;5.738;2024-01-06T09:52:14;10.20;;;4.32;;
61391;SDS011;47261;52.892;5.738;2024-01-06T09:54:46;6.32;;;3.03;;
61391;SDS011;47261;52.892;5.738;2024-01-06T09:57:18;10.32;;;4.60;;
61391;SDS011;47261;52.892;5.738;2024-01-06T09:59:45;14.57;;;7.23;;
61391;SDS011;47261;52.892;5.738;2024-01-06T10:02:12;10.73;;;4.32;;
61391;SDS011;47261;52.892;5.738;2024-01-06T10:04:40;17.40;;;7.07;;
61391;SDS011;47261;52.892;5.738;2024-01-06T10:07:06;13.70;;;5.63;;
61391;SDS011;47261;52.892;5.738;2024-01-06T10:09:32;15.77;;;4.37;;
61391;SDS011;47261;52.892;5.738;2024-01-06T10:11:57;17.13;;;6.00;;
61391;SDS011;47261;52.892;5.738;2024-01-06T10:14:24;12.43;;;5.07;;
61391;SDS011;47261;52.892;5.738;2024-01-06T10:16:53;9.75;;;4.53;;
61391;SDS011;47261;52.892;5.738;2024-01-06T10:19:19;15.23;;;6.63;;
61391;SDS011;47261;52.892;5.738;2024-01-06T10:21:45;16.48;;;6.60;;
61391;SDS011;47261;52.892;5.738;2024-01-06T10:24:11;13.07;;;5.13;;
61391;SDS011;47261;52.892;5.738;2024-01-06T10:26:36;17.90;;;6.07;;
61391;SDS011;47261;52.892;5.738;2024-01-06T10:29:03;13.60;;;6.05;;
61391;SDS011;47261;52.892;5.738;2024-01-06T10:31:29;11.05;;;4.90;;
61391;SDS011;47261;52.892;5.738;2024-01-06T10:33:55;15.82;;;5.63;;
61391;SDS011;47261;52.892;5.738;2024-01-06T10:36:22;14.37;;;5.07;;
61391;SDS011;47261;52.892;5.738;2024-01-06T10:38:48;12.70;;;4.53;;
61391;SDS011;47261;52.892;5.738;2024-01-06T10:41:15;13.35;;;6.28;;
61391;SDS011;47261;52.892;5.738;2024-01-06T10:43:41;14.05;;;5.40;;
61391;SDS011;47261;52.892;5.738;2024-01-06T10:46:08;7.75;;;4.25;;
61391;SDS011;47261;52.892;5.738;2024-01-06T10:48:39;11.48;;;5.40;;
61391;SDS011;47261;52.892;5.738;2024-01-06T10:51:08;16.77;;;4.95;;
61391;SDS011;47261;52.892;5.738;2024-01-06T10:53:34;14.07;;;5.00;;
61391;SDS011;47261;52.892;5.738;2024-01-06T10:56:04;13.02;;;5.30;;
61391;SDS011;47261;52.892;5.738;2024-01-06T10:58:32;15.48;;;6.72;;
61391;SDS011;47261;52.892;5.738;2024-01-06T11:01:02;12.05;;;4.70;;
61391;SDS011;47261;52.892;5.738;2024-01-06T11:03:29;12.13;;;4.82;;
61391;SDS011;47261;52.892;5.738;2024-01-06T11:05:55;14.00;;;6.00;;
61391;SDS011;47261;52.892;5.738;2024-01-06T11:08:22;11.32;;;4.75;;
61391;SDS011;47261;52.892;5.738;2024-01-06T11:10:50;13.75;;;5.82;;
61391;SDS011;47261;52.892;5.738;2024-01-06T11:13:20;11.48;;;5.55;;
61391;SDS011;47261;52.892;5.738;2024-01-06T11:15:51;13.27;;;5.53;;
61391;SDS011;47261;52.892;5.738;2024-01-06T11:18:31;12.85;;;5.38;;
61391;SDS011;47261;52.892;5.738;2024-01-06T11:26:31;11.48;;;6.10;;
61391;SDS011;47261;52.892;5.738;2024-01-06T11:28:57;17.75;;;5.07;;
61391;SDS011;47261;52.892;5.738;2024-01-06T11:31:28;10.00;;;5.35;;
61391;SDS011;47261;52.892;5.738;2024-01-06T11:33:58;12.85;;;5.32;;
61391;SDS011;47261;52.892;5.738;2024-01-06T11:36:50;9.18;;;3.95;;
61391;SDS011;47261;52.892;5.738;2024-01-06T11:39:33;10.25;;;3.72;;
61391;SDS011;47261;52.892;5.738;2024-01-06T11:42:03;11.55;;;4.45;;
61391;SDS011;47261;52.892;5.738;2024-01-06T11:44:29;11.25;;;5.47;;
61391;SDS011;47261;52.892;5.738;2024-01-06T11:46:59;11.23;;;4.53;;
61391;SDS011;47261;52.892;5.738;2024-01-06T11:49:26;9.68;;;3.92;;
61391;SDS011;47261;52.892;5.738;2024-01-06T11:51:58;8.13;;;3.43;;
61391;SDS011;47261;52.892;5.738;2024-01-06T11:54:25;10.43;;;4.55;;
61391;SDS011;47261;52.892;5.738;2024-01-06T11:56:51;12.88;;;5.45;;
61391;SDS011;47261;52.892;5.738;2024-01-06T11:59:21;11.05;;;4.45;;
61391;SDS011;47261;52.892;5.738;2024-01-06T12:01:46;12.20;;;4.68;;
61391;SDS011;47261;52.892;5.738;2024-01-06T12:04:15;11.90;;;3.50;;
61391;SDS011;47261;52.892;5.738;2024-01-06T12:06:42;11.23;;;5.05;;
61391;SDS011;47261;52.892;5.738;2024-01-06T12:09:10;9.35;;;4.50;;
61391;SDS011;47261;52.892;5.738;2024-01-06T12:11:40;13.80;;;5.32;;
61391;SDS011;47261;52.892;5.738;2024-01-06T12:14:06;9.93;;;3.60;;
61391;SDS011;47261;52.892;5.738;2024-01-06T12:16:32;10.82;;;3.72;;
61391;SDS011;47261;52.892;5.738;2024-01-06T12:18:58;12.20;;;4.15;;
61391;SDS011;47261;52.892;5.738;2024-01-06T12:21:26;10.68;;;3.60;;
61391;SDS011;47261;52.892;5.738;2024-01-06T12:23:52;7.33;;;3.90;;
61391;SDS011;47261;52.892;5.738;2024-01-06T12:26:18;8.68;;;3.03;;
61391;SDS011;47261;52.892;5.738;2024-01-06T12:28:44;10.75;;;3.60;;
61391;SDS011;47261;52.892;5.738;2024-01-06T12:31:11;12.70;;;4.53;;
61391;SDS011;47261;52.892;5.738;2024-01-06T12:33:38;11.23;;;3.45;;
61391;SDS011;47261;52.892;5.738;2024-01-06T12:36:09;9.13;;;4.22;;
61391;SDS011;47261;52.892;5.738;2024-01-06T12:38:36;10.13;;;3.55;;
61391;SDS011;47261;52.892;5.738;2024-01-06T12:41:03;8.45;;;3.88;;
61391;SDS011;47261;52.892;5.738;2024-01-06T12:43:29;9.17;;;3.67;;
61391;SDS011;47261;52.892;5.738;2024-01-06T12:45:55;7.82;;;3.10;;
61391;SDS011;47261;52.892;5.738;2024-01-06T12:48:23;11.35;;;4.20;;
61391;SDS011;47261;52.892;5.738;2024-01-06T12:50:48;10.80;;;3.60;;
61391;SDS011;47261;52.892;5.738;2024-01-06T12:53:14;7.97;;;2.60;;
61391;SDS011;47261;52.892;5.738;2024-01-06T12:55:42;8.95;;;3.28;;
61391;SDS011;47261;52.892;5.738;2024-01-06T12:58:08;8.05;;;3.22;;
61391;SDS011;47261;52.892;5.738;2024-01-06T13:00:34;8.93;;;3.20;;
61391;SDS011;47261;52.892;5.738;2024-01-06T13:02:59;5.82;;;2.28;;
61391;SDS011;47261;52.892;5.738;2024-01-06T13:05:25;6.13;;;2.90;;
61391;SDS011;47261;52.892;5.738;2024-01-06T13:07:51;8.65;;;3.28;;
61391;SDS011;47261;52.892;5.738;2024-01-06T13:10:17;7.32;;;2.53;;
61391;SDS011;47261;52.892;5.738;2024-01-06T13:12:42;11.57;;;2.95;;
61391;SDS011;47261;52.892;5.738;2024-01-06T13:15:08;8.40;;;2.53;;
61391;SDS011;47261;52.892;5.738;2024-01-06T13:17:37;6.97;;;2.38;;
61391;SDS011;47261;52.892;5.738;2024-01-06T13:20:03;8.07;;;2.88;;
61391;SDS011;47261;52.892;5.738;2024-01-06T13:22:29;9.25;;;2.53;;
61391;SDS011;47261;52.892;5.738;2024-01-06T13:24:55;6.78;;;2.20;;
61391;SDS011;47261;52.892;5.738;2024-01-06T13:27:21;5.75;;;2.80;;
61391;SDS011;47261;52.892;5.738;2024-01-06T13:29:47;7.73;;;3.13;;
61391;SDS011;47261;52.892;5.738;2024-01-06T13:32:13;8.75;;;3.40;;
61391;SDS011;47261;52.892;5.738;2024-01-06T13:34:40;6.20;;;2.58;;
61391;SDS011;47261;52.892;5.738;2024-01-06T13:37:06;8.37;;;2.43;;
61391;SDS011;47261;52.892;5.738;2024-01-06T13:39:32;11.32;;;2.58;;
61391;SDS011;47261;52.892;5.738;2024-01-06T13:41:58;9.63;;;3.28;;
61391;SDS011;47261;52.892;5.738;2024-01-06T13:44:23;9.57;;;3.17;;
61391;SDS011;47261;52.892;5.738;2024-01-06T13:46:49;7.75;;;3.13;;
61391;SDS011;47261;52.892;5.738;2024-01-06T13:49:16;6.10;;;2.43;;
61391;SDS011;47261;52.892;5.738;2024-01-06T13:51:42;8.73;;;2.33;;
61391;SDS011;47261;52.892;5.738;2024-01-06T13:54:08;8.02;;;2.30;;
61391;SDS011;47261;52.892;5.738;2024-01-06T13:56:34;7.40;;;2.75;;
61391;SDS011;47261;52.892;5.738;2024-01-06T13:59:00;9.77;;;3.75;;
61391;SDS011;47261;52.892;5.738;2024-01-06T14:01:27;8.20;;;2.93;;
61391;SDS011;47261;52.892;5.738;2024-01-06T14:03:53;6.63;;;2.97;;
61391;SDS011;47261;52.892;5.738;2024-01-06T14:06:28;9.63;;;3.50;;
61391;SDS011;47261;52.892;5.738;2024-01-06T14:08:57;7.40;;;3.53;;
61391;SDS011;47261;52.892;5.738;2024-01-06T14:11:23;10.57;;;4.57;;
61391;SDS011;47261;52.892;5.738;2024-01-06T14:13:49;10.55;;;4.30;;
61391;SDS011;47261;52.892;5.738;2024-01-06T14:16:16;9.30;;;3.47;;
61391;SDS011;47261;52.892;5.738;2024-01-06T14:18:41;8.13;;;3.20;;
61391;SDS011;47261;52.892;5.738;2024-01-06T14:21:10;6.57;;;2.60;;
61391;SDS011;47261;52.892;5.738;2024-01-06T14:23:39;6.88;;;3.35;;
61391;SDS011;47261;52.892;5.738;2024-01-06T14:26:04;8.93;;;4.20;;
61391;SDS011;47261;52.892;5.738;2024-01-06T14:28:31;10.40;;;4.45;;
61391;SDS011;47261;52.892;5.738;2024-01-06T14:30:56;8.27;;;3.03;;
61391;SDS011;47261;52.892;5.738;2024-01-06T14:33:23;7.20;;;3.13;;
61391;SDS011;47261;52.892;5.738;2024-01-06T14:35:49;6.72;;;2.95;;
61391;SDS011;47261;52.892;5.738;2024-01-06T14:38:14;7.10;;;2.63;;